createdAt,value
2023-04-04T00:00:44.505Z,1.35
2023-04-04T00:04:46.706Z,1.25
2023-04-04T00:08:48.482Z,1.50
2023-04-04T00:12:50.771Z,1.42
2023-04-04T00:17:05.907Z,1.20
2023-04-04T00:21:07.632Z,1.23
2023-04-04T00:25:10.778Z,1.33
2023-04-04T00:29:12.526Z,1.70
2023-04-04T00:33:15.132Z,1.27
2023-04-04T00:37:17.379Z,1.50
2023-04-04T00:41:19.094Z,1.50
2023-04-04T00:45:20.851Z,1.70
2023-04-04T00:49:22.609Z,1.33
2023-04-04T00:53:24.277Z,1.15
2023-04-04T00:57:28.758Z,1.37
2023-04-04T01:01:31.907Z,1.48
2023-04-04T01:05:33.796Z,1.67
2023-04-04T01:09:36.037Z,1.33
2023-04-04T01:13:37.835Z,1.40
2023-04-04T01:17:41.428Z,1.90
2023-04-04T01:21:45.363Z,1.80
2023-04-04T01:25:48.766Z,1.67
2023-04-04T01:29:51.004Z,1.35
2023-04-04T01:34:02.115Z,1.35
2023-04-04T01:38:13.410Z,1.10
2023-04-04T01:42:16.697Z,1.80
2023-04-04T01:46:18.706Z,1.50
2023-04-04T01:50:20.820Z,1.75
2023-04-04T01:54:22.639Z,1.67
2023-04-04T01:58:24.390Z,1.67
2023-04-04T02:02:27.057Z,1.70
2023-04-04T02:06:29.241Z,1.60
2023-04-04T02:10:30.998Z,1.73
2023-04-04T02:14:32.675Z,1.77
2023-04-04T02:18:34.403Z,1.70
2023-04-04T02:22:36.269Z,1.80
2023-04-04T02:26:38.911Z,2.05
2023-04-04T02:30:40.809Z,1.70
2023-04-04T02:34:43.157Z,1.60
2023-04-04T02:38:44.892Z,1.62
2023-04-04T02:42:46.621Z,1.58
2023-04-04T02:46:48.698Z,2.00
2023-04-04T02:50:50.976Z,1.80
2023-04-04T02:54:52.829Z,2.17
2023-04-04T02:58:54.588Z,1.83
2023-04-04T03:02:57.633Z,2.12
2023-04-04T03:06:59.617Z,2.10
2023-04-04T03:11:01.572Z,1.80
2023-04-04T03:15:04.438Z,2.20
2023-04-04T03:19:06.157Z,1.75
2023-04-04T03:23:07.862Z,2.17
2023-04-04T03:27:09.574Z,1.87
2023-04-04T03:31:11.635Z,1.70
2023-04-04T03:35:13.340Z,2.22
2023-04-04T03:39:15.325Z,2.03
2023-04-04T03:43:17.298Z,1.92
2023-04-04T03:47:19.478Z,1.98
2023-04-04T03:51:25.142Z,2.15
2023-04-04T03:55:27.141Z,2.28
2023-04-04T03:59:29.369Z,2.10
2023-04-04T04:03:31.711Z,2.33
2023-04-04T04:07:33.599Z,1.87
2023-04-04T04:11:36.084Z,2.22
2023-04-04T04:15:37.794Z,2.20
2023-04-04T04:19:39.484Z,1.90
2023-04-04T04:23:41.274Z,2.00
2023-04-04T04:27:43.042Z,2.22
2023-04-04T04:31:44.752Z,2.10
2023-04-04T04:35:46.789Z,2.15
2023-04-04T04:39:48.466Z,1.90
2023-04-04T04:43:50.523Z,1.80
2023-04-04T04:47:52.505Z,1.92
2023-04-04T04:51:54.326Z,2.10
2023-04-04T04:55:56.085Z,1.87
2023-04-04T04:59:57.948Z,2.17
2023-04-04T05:03:59.703Z,2.37
2023-04-04T05:08:02.757Z,2.30
2023-04-04T05:12:04.934Z,2.67
2023-04-04T05:16:06.914Z,5.10
2023-04-04T05:20:09.131Z,5.05
2023-04-04T05:24:10.875Z,2.60
2023-04-04T05:28:12.812Z,2.45
2023-04-04T05:32:14.970Z,2.75
2023-04-04T05:36:16.942Z,2.55
2023-04-04T05:40:18.714Z,2.87
2023-04-04T05:44:20.641Z,2.75
2023-04-04T05:48:22.314Z,2.78
2023-04-04T05:52:24.005Z,3.40
2023-04-04T05:56:25.716Z,3.50
2023-04-04T06:00:27.801Z,2.37
2023-04-04T06:04:29.525Z,2.95
2023-04-04T06:08:35.377Z,3.00
2023-04-04T06:12:42.567Z,2.70
2023-04-04T06:16:44.283Z,2.55
2023-04-04T06:20:46.254Z,2.30
2023-04-04T06:24:47.966Z,2.62
2023-04-04T06:28:50.556Z,2.53
2023-04-04T06:32:53.011Z,2.50
2023-04-04T06:36:54.711Z,2.72
2023-04-04T06:40:56.389Z,2.05
2023-04-04T06:44:58.133Z,2.70
2023-04-04T06:48:59.770Z,3.17
2023-04-04T06:53:02.152Z,2.62
2023-04-04T06:57:04.623Z,2.75
2023-04-04T07:01:07.074Z,2.53
2023-04-04T07:05:10.001Z,1.92
2023-04-04T07:09:21.979Z,2.40
2023-04-04T07:13:30.102Z,2.20
2023-04-04T07:17:32.158Z,2.53
2023-04-04T07:21:33.902Z,1.70
2023-04-04T07:25:35.602Z,1.75
2023-04-04T07:29:37.260Z,1.25
2023-04-04T07:33:38.965Z,1.92
2023-04-04T07:37:40.820Z,1.60
2023-04-04T07:41:42.503Z,1.33
2023-04-04T07:45:44.403Z,1.33
2023-04-04T07:49:46.429Z,1.52
2023-04-04T07:53:48.152Z,1.65
2023-04-04T07:57:49.870Z,1.30
2023-04-04T08:01:51.825Z,1.33
2023-04-04T08:05:53.604Z,1.17
2023-04-04T08:09:55.502Z,1.20
2023-04-04T08:13:57.192Z,1.42
2023-04-04T08:17:59.080Z,1.37
2023-04-04T08:22:01.538Z,1.30
2023-04-04T08:26:03.700Z,1.17
2023-04-04T08:30:06.895Z,1.12
2023-04-04T08:34:08.646Z,0.90
2023-04-04T08:38:10.342Z,1.10
2023-04-04T08:42:14.917Z,1.37
2023-04-04T08:46:16.828Z,1.10
2023-04-04T08:50:19.777Z,1.10
2023-04-04T08:54:21.873Z,0.95
2023-04-04T08:58:23.941Z,1.20
2023-04-04T09:02:29.082Z,1.30
2023-04-04T09:06:32.041Z,1.00
2023-04-04T09:10:34.330Z,1.20
2023-04-04T09:14:38.776Z,1.12
2023-04-04T09:18:40.548Z,1.05
2023-04-04T09:22:45.230Z,1.37
2023-04-04T09:26:53.962Z,1.20
2023-04-04T09:30:55.898Z,1.10
2023-04-04T09:34:57.643Z,1.40
2023-04-04T09:38:59.329Z,1.50
2023-04-04T09:43:02.274Z,1.48
2023-04-04T09:47:31.030Z,1.60
2023-04-04T09:51:37.361Z,1.40
2023-04-04T09:55:39.445Z,1.42
2023-04-04T09:59:42.539Z,1.60
2023-04-04T10:03:53.542Z,1.48
2023-04-04T10:07:57.048Z,1.60
2023-04-04T10:12:09.741Z,1.48
2023-04-04T10:16:12.117Z,1.60
2023-04-04T10:20:14.743Z,1.55
2023-04-04T10:24:18.011Z,1.58
2023-04-04T10:28:21.191Z,1.50
2023-04-04T10:32:30.093Z,1.60
2023-04-04T10:36:40.055Z,1.80
2023-04-04T10:40:49.410Z,1.55
2023-04-04T10:44:51.412Z,1.50
2023-04-04T10:48:54.064Z,1.45
2023-04-04T10:52:58.392Z,1.70
2023-04-04T10:57:04.011Z,1.70
2023-04-04T11:01:07.987Z,1.70
2023-04-04T11:05:24.465Z,1.85
2023-04-04T11:09:51.269Z,1.73
2023-04-04T11:14:01.630Z,2.20
2023-04-04T11:18:17.959Z,1.65
2023-04-04T11:22:28.405Z,1.95
2023-04-04T11:26:32.781Z,1.80
2023-04-04T11:30:48.304Z,1.67
2023-04-04T11:34:50.339Z,2.03
2023-04-04T11:38:52.298Z,2.03
2023-04-04T11:42:56.026Z,1.75
2023-04-04T11:47:06.711Z,1.77
2023-04-04T11:51:09.261Z,2.00
2023-04-04T11:55:19.843Z,1.77
2023-04-04T11:59:22.950Z,1.62
2023-04-04T12:03:28.175Z,1.70
2023-04-04T12:07:30.445Z,1.70
2023-04-04T12:11:34.731Z,1.50
2023-04-04T12:15:37.693Z,1.90
2023-04-04T12:19:40.928Z,1.50
2023-04-04T12:23:42.668Z,1.50
2023-04-04T12:27:45.053Z,1.30
2023-04-04T12:31:47.965Z,1.48
2023-04-04T12:35:54.736Z,1.55
2023-04-04T12:39:57.883Z,1.65
2023-04-04T12:44:09.824Z,1.33
2023-04-04T12:48:14.430Z,1.60
2023-04-04T12:52:27.936Z,1.75
2023-04-04T12:56:31.288Z,1.90
2023-04-04T13:00:33.644Z,2.15
2023-04-04T13:04:35.634Z,1.70
2023-04-04T13:08:37.648Z,1.95
2023-04-04T13:12:59.908Z,1.75
2023-04-04T13:17:09.419Z,1.50
2023-04-04T13:21:12.181Z,1.67
2023-04-04T13:25:14.017Z,2.72
2023-04-04T13:29:15.794Z,1.85
2023-04-04T13:33:18.356Z,2.72
2023-04-04T13:37:20.556Z,1.73
2023-04-04T13:41:22.472Z,1.75
2023-04-04T13:45:24.201Z,1.92
2023-04-04T13:49:25.967Z,2.28
2023-04-04T13:53:27.690Z,1.62
2023-04-04T13:57:29.389Z,1.83
2023-04-04T14:01:31.359Z,1.83
2023-04-04T14:05:33.097Z,1.73
2023-04-04T14:09:34.807Z,1.85
2023-04-04T14:13:36.869Z,1.77
2023-04-04T14:17:38.615Z,2.15
2023-04-04T14:21:40.361Z,2.37
2023-04-04T14:25:42.885Z,2.20
2023-04-04T14:29:44.856Z,2.03
2023-04-04T14:33:46.578Z,2.33
2023-04-04T14:37:49.820Z,2.47
2023-04-04T14:41:51.869Z,2.37
2023-04-04T14:45:53.684Z,2.17
2023-04-04T14:49:56.113Z,2.62
2023-04-04T14:53:58.198Z,2.08
2023-04-04T14:58:02.680Z,1.83
2023-04-04T15:02:04.860Z,2.20
2023-04-04T15:06:06.786Z,2.60
2023-04-04T15:10:09.081Z,3.37
2023-04-04T15:14:10.762Z,2.30
2023-04-04T15:18:12.618Z,2.58
2023-04-04T15:22:14.330Z,2.78
2023-04-04T15:26:16.162Z,2.28
2023-04-04T15:30:17.937Z,2.37
2023-04-04T15:34:19.660Z,2.95
2023-04-04T15:38:21.615Z,2.22
2023-04-04T15:42:25.932Z,5.47
2023-04-04T15:46:28.358Z,2.22
2023-04-04T15:50:30.375Z,2.25
2023-04-04T15:54:32.143Z,2.55
2023-04-04T15:58:33.818Z,2.22
2023-04-04T16:02:35.792Z,2.45
2023-04-04T16:06:37.811Z,2.25
2023-04-04T16:10:41.443Z,2.95
2023-04-04T16:14:44.044Z,3.20
2023-04-04T16:18:46.019Z,2.80
2023-04-04T16:22:47.728Z,2.90
2023-04-04T16:26:50.066Z,2.55
2023-04-04T16:30:52.131Z,2.90
2023-04-04T16:34:54.078Z,2.08
2023-04-04T16:38:57.776Z,2.70
2023-04-04T16:42:59.490Z,2.45
2023-04-04T16:47:01.231Z,2.47
2023-04-04T16:51:03.150Z,2.40
2023-04-04T16:55:05.633Z,2.53
2023-04-04T16:59:07.477Z,2.28
2023-04-04T17:03:09.202Z,2.62
2023-04-04T17:07:10.905Z,2.33
2023-04-04T17:11:15.858Z,2.30
2023-04-04T17:15:18.074Z,2.35
2023-04-04T17:19:20.041Z,2.17
2023-04-04T17:23:21.748Z,1.90
2023-04-04T17:27:23.652Z,1.92
2023-04-04T17:31:25.672Z,2.20
2023-04-04T17:35:27.577Z,2.10
2023-04-04T17:39:29.363Z,1.70
2023-04-04T17:43:31.559Z,2.00
2023-04-04T17:47:33.343Z,1.58
2023-04-04T17:51:35.045Z,1.90
2023-04-04T17:55:36.867Z,1.60
2023-04-04T17:59:38.636Z,2.00
2023-04-04T18:03:40.512Z,1.70
2023-04-04T18:07:42.426Z,2.65
2023-04-04T18:11:44.175Z,2.45
2023-04-04T18:15:46.304Z,6.07
2023-04-04T18:19:48.040Z,4.30
2023-04-04T18:23:49.719Z,3.12
2023-04-04T18:27:51.751Z,2.60
2023-04-04T18:31:53.467Z,2.25
2023-04-04T18:35:55.341Z,2.87
2023-04-04T18:39:57.039Z,4.85
2023-04-04T18:43:58.835Z,4.40
2023-04-04T18:48:01.241Z,3.50
2023-04-04T18:52:02.999Z,3.17
2023-04-04T18:56:04.785Z,3.67
2023-04-04T19:00:15.284Z,2.75
2023-04-04T19:04:21.048Z,2.20
2023-04-04T19:08:23.999Z,2.58
2023-04-04T19:12:25.739Z,2.30
2023-04-04T19:16:27.726Z,2.25
2023-04-04T19:20:29.443Z,2.20
2023-04-04T19:24:31.160Z,2.35
2023-04-04T19:28:33.209Z,2.40
2023-04-04T19:32:36.129Z,2.62
2023-04-04T19:36:37.989Z,2.58
2023-04-04T19:40:55.676Z,2.92
2023-04-04T19:44:57.329Z,3.53
2023-04-04T19:49:00.605Z,4.70
2023-04-04T19:53:03.501Z,4.97
2023-04-04T19:57:07.505Z,3.67
2023-04-04T20:01:10.930Z,3.85
2023-04-04T20:05:47.623Z,3.10
2023-04-04T20:09:51.604Z,3.08
2023-04-04T20:13:53.336Z,3.05
2023-04-04T20:17:55.575Z,2.80
2023-04-04T20:21:57.462Z,5.07
2023-04-04T20:26:06.346Z,3.35
2023-04-04T20:30:11.490Z,4.03
2023-04-04T20:34:42.009Z,4.30
2023-04-04T20:38:44.425Z,4.43
2023-04-04T20:42:46.619Z,4.53
2023-04-04T20:46:48.486Z,4.07
2023-04-04T20:50:50.224Z,4.68
2023-04-04T20:54:51.902Z,4.50
2023-04-04T20:58:53.637Z,4.50
2023-04-04T21:03:01.175Z,4.57
2023-04-04T21:07:04.851Z,4.00
2023-04-04T21:11:06.995Z,4.20
2023-04-04T21:15:10.605Z,4.07
2023-04-04T21:19:12.551Z,3.85
2023-04-04T21:23:26.944Z,3.75
2023-04-04T21:27:35.439Z,3.92
2023-04-04T21:31:39.501Z,3.90
2023-04-04T21:35:47.302Z,4.07
2023-04-04T21:39:50.322Z,3.72
2023-04-04T21:43:52.896Z,4.07
2023-04-04T21:47:54.613Z,3.22
2023-04-04T21:51:56.304Z,3.80
2023-04-04T21:55:58.007Z,3.50
2023-04-04T21:59:59.717Z,3.50
2023-04-04T22:04:01.422Z,3.80
2023-04-04T22:08:03.113Z,3.95
2023-04-04T22:12:05.173Z,3.72
2023-04-04T22:16:07.108Z,3.97
2023-04-04T22:20:09.952Z,3.75
2023-04-04T22:24:13.591Z,3.62
2023-04-04T22:28:18.083Z,3.00
2023-04-04T22:32:19.763Z,3.70
2023-04-04T22:36:23.572Z,3.30
2023-04-04T22:40:25.458Z,3.40
2023-04-04T22:44:27.164Z,3.58
2023-04-04T22:48:30.625Z,3.40
2023-04-04T22:52:32.412Z,3.58
2023-04-04T22:56:34.100Z,3.20
2023-04-04T23:00:36.158Z,3.22
2023-04-04T23:04:37.936Z,3.72
2023-04-04T23:08:39.647Z,3.97
2023-04-04T23:12:41.404Z,3.72
2023-04-04T23:16:43.165Z,3.80
2023-04-04T23:20:44.875Z,3.70
2023-04-04T23:24:48.007Z,3.90
2023-04-04T23:28:53.870Z,3.92
2023-04-04T23:32:55.624Z,4.15
2023-04-04T23:36:57.299Z,3.92
2023-04-04T23:40:59.001Z,4.30
2023-04-04T23:45:02.084Z,4.32
2023-04-04T23:49:03.947Z,4.55
2023-04-04T23:53:05.708Z,5.28
2023-04-04T23:57:07.365Z,4.37
